Emsgas — 3EGC2 — position and weather

sailwx.info

Track history (hours):
 
Tides and Currents Weather Stations Pressure Air Temp Water Temp Dewpoint Dewpoint Depression Visibility Wind Speed Wind Dir Waves Ship Positions

Emsgas

Last reported at 2018-Feb-11 12:55 UTC. Time now 2018-Feb-20 12:05 UTC.
Position N 37°34' E 023°46'.
Warning: this ship's position is 8 days out of date.

Length 114.8 m; beam 17.2 m; draft 6.7 m.

Type: Ship (hazmat cat B). MMSI: 356011000.

Date/timePositionNaut miles runAvg speedWind from/ knotsBaromVisibWave heightAir tempDewpointWater temp
2018-Feb-11 12:55N 37°34' E 023°46'4 9.4
2018-Feb-11 12:30N 37°38' E 023°43'5 9.1
2018-Feb-11 12:00N 37°42' E 023°41'510.0
2018-Feb-11 11:30N 37°46' E 023°38'5 9.1
2018-Feb-11 11:00N 37°49' E 023°34'510.3
2018-Feb-11 10:30N 37°50' E 023°27'5 9.7
2018-Feb-11 10:00N 37°51' E 023°21'5 9.6
2018-Feb-11 09:30N 37°52' E 023°15'5 9.6
2018-Feb-11 09:00N 37°53' E 023°09'4 7.2
2018-Feb-11 08:31N 37°55' E 023°05'0 0.0
2018-Feb-11 08:00N 37°55' E 023°05'0 0.0
2018-Feb-11 07:30N 37°55' E 023°05'0 0.0
2018-Feb-11 07:00N 37°55' E 023°05'0 0.0
2018-Feb-11 06:30N 37°55' E 023°05'0 0.0
2018-Feb-11 06:00N 37°55' E 023°05'0 0.0
2018-Feb-11 05:30N 37°55' E 023°05'0 0.0
2018-Feb-11 05:00N 37°55' E 023°05'0 0.0
2018-Feb-11 04:30N 37°55' E 023°05'0 0.0
2018-Feb-11 04:00N 37°55' E 023°05'0 0.0
2018-Feb-11 03:30N 37°55' E 023°05'0 0.0
2018-Feb-11 03:00N 37°55' E 023°05'0 0.0
2018-Feb-11 02:30N 37°55' E 023°05'0 0.0
2018-Feb-11 02:00N 37°55' E 023°05'0 0.0
2018-Feb-11 01:30N 37°55' E 023°05'0 0.0
2018-Feb-11 01:00N 37°55' E 023°05'0 0.0
2018-Feb-11 00:30N 37°55' E 023°05'0 0.0
2018-Feb-11 00:00N 37°55' E 023°05'0 0.0
2018-Feb-10 23:30N 37°55' E 023°05'0 0.0
2018-Feb-10 23:00N 37°55' E 023°05'0 0.0
2018-Feb-10 22:30N 37°55' E 023°05'0 0.0
2018-Feb-10 22:00N 37°55' E 023°05'0 0.0
2018-Feb-10 21:30N 37°55' E 023°05'0 0.0
2018-Feb-10 21:00N 37°55' E 023°05'0 0.0
2018-Feb-10 20:30N 37°55' E 023°05'0 0.0
2018-Feb-10 20:00N 37°55' E 023°05'0 0.0
2018-Feb-10 19:30N 37°55' E 023°05'0 0.0
2018-Feb-10 19:00N 37°55' E 023°05'0 0.0
2018-Feb-10 18:30N 37°55' E 023°05'0 0.0
2018-Feb-10 18:00N 37°55' E 023°05'0 0.0
2018-Feb-10 17:30N 37°55' E 023°05'0 0.0
2018-Feb-10 17:00N 37°55' E 023°05'0 0.0
2018-Feb-10 16:30N 37°55' E 023°05'0 0.0
2018-Feb-10 16:00N 37°55' E 023°05'0 0.0
2018-Feb-10 15:30N 37°55' E 023°05'0 0.0
2018-Feb-10 15:00N 37°55' E 023°05'0 0.0
2018-Feb-10 14:30N 37°55' E 023°05'0 0.0
2018-Feb-10 14:00N 37°55' E 023°05'0 0.0
2018-Feb-10 13:30N 37°55' E 023°05'0 0.0
2018-Feb-10 13:00N 37°55' E 023°05'0 0.0
2018-Feb-10 12:30N 37°55' E 023°05'0 0.0
2018-Feb-10 12:00N 37°55' E 023°05'0 0.0
2018-Feb-10 11:30N 37°55' E 023°05'0 0.0
2018-Feb-10 11:00N 37°55' E 023°05'0 0.0
2018-Feb-10 10:30N 37°55' E 023°05'0 0.0
2018-Feb-10 10:00N 37°55' E 023°05'0 0.0
2018-Feb-10 09:30N 37°55' E 023°05'0 0.0
2018-Feb-10 09:00N 37°55' E 023°05'0 0.0
2018-Feb-10 08:30N 37°55' E 023°05'0 0.0
2018-Feb-10 08:00N 37°55' E 023°05'0 0.0
2018-Feb-10 07:30N 37°55' E 023°05'0 0.0
2018-Feb-10 07:00N 37°55' E 023°05'0 0.0
2018-Feb-10 06:30N 37°55' E 023°05'0 0.0
2018-Feb-10 06:00N 37°55' E 023°05'0 0.0
2018-Feb-10 05:30N 37°55' E 023°05'0 0.0
2018-Feb-10 05:00N 37°55' E 023°05'0 0.0
2018-Feb-10 04:30N 37°55' E 023°05'0 0.0
2018-Feb-10 04:00N 37°55' E 023°05'0 0.0
2018-Feb-10 03:30N 37°55' E 023°05'0 0.0
2018-Feb-10 03:00N 37°55' E 023°05'0 0.0
2018-Feb-10 02:30N 37°55' E 023°05'0 0.0
2018-Feb-10 02:00N 37°55' E 023°05'0 0.0
2018-Feb-10 01:30N 37°55' E 023°05'0 0.0
2018-Feb-10 00:59N 37°55' E 023°05'0 0.7
2018-Feb-10 00:30N 37°55' E 023°06'1 1.3
2018-Feb-09 23:59N 37°54' E 023°06'0 0.1
2018-Feb-09 23:29N 37°54' E 023°06'0 0.0
2018-Feb-09 22:59N 37°54' E 023°06'0 0.1
2018-Feb-09 22:44N 37°54' E 023°06'0 0.0
2018-Feb-08 01:29N 37°55' E 023°06'0 0.1
2018-Feb-08 00:59N 37°54' E 023°06'0 0.2
2018-Feb-08 00:29N 37°54' E 023°06'0 0.0
2018-Feb-07 23:59N 37°54' E 023°06'0 0.1
2018-Feb-07 23:29N 37°55' E 023°06'0 0.0
2018-Feb-07 22:59N 37°55' E 023°06'0 0.0
2018-Feb-07 22:29N 37°55' E 023°06'0 0.0
2018-Feb-07 21:59N 37°54' E 023°06'0 0.1
2018-Feb-07 21:29N 37°54' E 023°06'0 0.0
2018-Feb-07 09:29N 37°55' E 023°06'0 0.0
2018-Feb-07 08:59N 37°55' E 023°06'0 0.1
2018-Feb-07 08:29N 37°55' E 023°06'0 0.1
2018-Feb-07 07:59N 37°55' E 023°06'0 0.1
2018-Feb-07 07:29N 37°55' E 023°06'0 0.1
2018-Feb-07 06:59N 37°54' E 023°06'0 0.0
2018-Feb-07 06:29N 37°54' E 023°06'0 0.0
2018-Feb-07 05:59N 37°54' E 023°06'0 0.0
2018-Feb-07 05:29N 37°54' E 023°06'0 0.0
2018-Feb-07 04:59N 37°54' E 023°06'0 0.0
2018-Feb-07 04:29N 37°54' E 023°06'0 0.0
2018-Feb-07 03:59N 37°54' E 023°06'0 0.0
2018-Feb-07 03:29N 37°55' E 023°06'0 0.1
2018-Feb-07 02:59N 37°54' E 023°06'0 0.0
2018-Feb-07 02:29N 37°54' E 023°06'0 0.0
2018-Feb-07 01:59N 37°54' E 023°06'0 0.0
2018-Feb-07 01:29N 37°54' E 023°06'0 0.0
2018-Feb-07 00:59N 37°54' E 023°06'0 0.0
2018-Feb-07 00:29N 37°55' E 023°06'0 0.0
2018-Feb-06 23:59N 37°55' E 023°06'0 0.0
2018-Feb-06 23:29N 37°55' E 023°06'0 0.0
2018-Feb-06 22:59N 37°55' E 023°06'0 0.0
2018-Feb-06 22:29N 37°55' E 023°06'0 0.0
2018-Feb-06 21:59N 37°55' E 023°06'0 0.0
2018-Feb-06 21:29N 37°55' E 023°06'0 0.1
2018-Feb-06 20:59N 37°55' E 023°06'0 0.1
2018-Feb-06 20:29N 37°55' E 023°06'0 0.1
2018-Feb-06 19:59N 37°55' E 023°06'0 0.0
2018-Feb-06 19:29N 37°55' E 023°06'0 0.0
2018-Feb-06 18:59N 37°55' E 023°06'0 0.0
2018-Feb-06 18:29N 37°55' E 023°06'0 0.0
2018-Feb-06 17:59N 37°55' E 023°06'0 0.0
2018-Feb-06 17:29N 37°55' E 023°06'0 0.0
2018-Feb-06 16:59N 37°55' E 023°06'0 0.0
2018-Feb-06 16:29N 37°55' E 023°06'0 0.0
2018-Feb-06 15:59N 37°55' E 023°06'0 0.0
2018-Feb-06 15:29N 37°55' E 023°06'0 0.0
2018-Feb-06 14:59N 37°55' E 023°06'0 0.0
2018-Feb-06 14:29N 37°55' E 023°06'0 0.0
2018-Feb-06 13:59N 37°55' E 023°06'0 0.0
2018-Feb-06 13:29N 37°55' E 023°06'0 0.0
2018-Feb-06 12:59N 37°55' E 023°06'0 0.0
2018-Feb-06 12:29N 37°55' E 023°06'0 0.0
2018-Feb-06 11:59N 37°55' E 023°06'0 0.0
2018-Feb-06 11:26N 37°55' E 023°06'0 0.0
2018-Feb-06 10:59N 37°55' E 023°06'0 0.0
2018-Feb-06 10:29N 37°55' E 023°06'0 0.0
2018-Feb-06 09:59N 37°55' E 023°06'0 0.0
2018-Feb-06 09:29N 37°55' E 023°06'0 0.0
2018-Feb-06 08:59N 37°55' E 023°06'0 0.0
2018-Feb-06 08:29N 37°55' E 023°06'0 0.0
2018-Feb-06 07:59N 37°55' E 023°06'0 0.0
2018-Feb-06 07:20N 37°55' E 023°06'0 0.0
2018-Feb-06 06:59N 37°55' E 023°06'0 0.1
2018-Feb-06 06:29N 37°54' E 023°06'0 0.0
2018-Feb-06 05:59N 37°55' E 023°06'0 0.1
2018-Feb-06 05:29N 37°55' E 023°06'0 0.0
2018-Feb-06 04:59N 37°55' E 023°06'0 0.1
2018-Feb-06 04:29N 37°55' E 023°06'0 0.0
2018-Feb-06 03:59N 37°55' E 023°06'0 0.0
2018-Feb-06 03:29N 37°55' E 023°06'0 0.0
2018-Feb-06 02:59N 37°55' E 023°06'0 0.1
2018-Feb-06 02:29N 37°55' E 023°06'0 0.0
2018-Feb-06 01:59N 37°55' E 023°06'0 0.0
2018-Feb-06 01:29N 37°55' E 023°06'0 0.0
2018-Feb-06 00:59N 37°55' E 023°06'0 0.0
2018-Feb-06 00:29N 37°54' E 023°06'0 0.0
2018-Feb-05 23:59N 37°54' E 023°06'0 0.1
2018-Feb-05 23:29N 37°55' E 023°06'0 0.1
2018-Feb-05 22:59N 37°55' E 023°06'0 0.1
2018-Feb-05 22:29N 37°55' E 023°06'0 0.1
2018-Feb-05 21:59N 37°55' E 023°06'0 0.1
2018-Feb-05 21:29N 37°55' E 023°06'0 0.1
2018-Feb-05 20:59N 37°55' E 023°06'0 0.1
2018-Feb-05 20:29N 37°55' E 023°06'0 0.0
2018-Feb-05 19:59N 37°55' E 023°06'0 0.1
2018-Feb-05 19:29N 37°55' E 023°06'0 0.1
2018-Feb-05 18:59N 37°55' E 023°06'0 0.1
2018-Feb-05 18:29N 37°55' E 023°06'0 0.0
2018-Feb-05 17:59N 37°55' E 023°06'0 0.0
2018-Feb-05 17:29N 37°55' E 023°06'0 0.1
2018-Feb-05 16:59N 37°54' E 023°06'0 0.1
2018-Feb-05 16:29N 37°55' E 023°06'0 0.0
2018-Feb-05 15:59N 37°55' E 023°06'0 0.0
2018-Feb-05 15:29N 37°55' E 023°06'0 0.0
2018-Feb-05 14:59N 37°55' E 023°06'0 0.0
2018-Feb-05 14:29N 37°55' E 023°06'0 0.0
2018-Feb-05 13:59N 37°55' E 023°06'0 0.0
2018-Feb-05 13:29N 37°55' E 023°06'0 0.0
2018-Feb-05 12:59N 37°55' E 023°06'0 0.0
2018-Feb-05 12:29N 37°55' E 023°06'0 0.0
2018-Feb-05 11:59N 37°55' E 023°06'0 0.0
2018-Feb-05 11:29N 37°55' E 023°06'0 0.0
2018-Feb-05 10:59N 37°55' E 023°06'0 0.0
2018-Feb-05 10:29N 37°55' E 023°06'0 0.0
2018-Feb-05 09:59N 37°55' E 023°06'0 0.0
2018-Feb-05 09:29N 37°55' E 023°06'0 0.0
2018-Feb-05 08:59N 37°55' E 023°06'0 0.0
2018-Feb-05 08:29N 37°55' E 023°06'0 0.0
2018-Feb-05 07:59N 37°55' E 023°06'0 0.0
2018-Feb-05 07:29N 37°55' E 023°06'0 0.0
2018-Feb-05 06:59N 37°55' E 023°06'0 0.0
2018-Feb-05 06:29N 37°55' E 023°06'0 0.0
2018-Feb-05 05:29N 37°55' E 023°06'0 0.0
2018-Feb-05 04:59N 37°55' E 023°06'0 0.0
2018-Feb-05 04:29N 37°55' E 023°06'0 0.0
2018-Feb-05 03:59N 37°55' E 023°06'0 0.0
2018-Feb-05 03:29N 37°55' E 023°06'0 0.0
2018-Feb-05 02:59N 37°55' E 023°06'0 0.0
2018-Feb-05 02:29N 37°55' E 023°06'0 0.0
2018-Feb-05 01:59N 37°55' E 023°06'0 0.0
2018-Feb-05 01:29N 37°55' E 023°06'0 0.1
2018-Feb-05 00:59N 37°55' E 023°06'0 0.0
2018-Feb-05 00:29N 37°55' E 023°06'0 0.0
2018-Feb-04 23:59N 37°55' E 023°06'0 0.0
2018-Feb-04 23:29N 37°55' E 023°06'0 0.0
2018-Feb-04 22:59N 37°55' E 023°06'0 0.0
2018-Feb-04 22:29N 37°55' E 023°06'0 0.0
2018-Feb-04 21:59N 37°55' E 023°06'0 0.0
2018-Feb-04 21:29N 37°55' E 023°06'0 0.0
2018-Feb-04 20:59N 37°55' E 023°06'0 0.0
2018-Feb-04 19:59N 37°55' E 023°06'0 0.0
2018-Feb-04 19:29N 37°55' E 023°06'0 0.1
2018-Feb-04 18:59N 37°55' E 023°06'0 0.0
2018-Feb-04 18:29N 37°55' E 023°06'0 0.0
2018-Feb-04 17:59N 37°54' E 023°06'0 0.0
2018-Feb-04 17:29N 37°55' E 023°06'0 0.0
2018-Feb-04 15:29N 37°55' E 023°06'0 0.0
2018-Feb-04 14:59N 37°55' E 023°06'0 0.0
2018-Feb-04 14:29N 37°55' E 023°06'0 0.0
2018-Feb-04 13:59N 37°55' E 023°06'0 0.0
2018-Feb-04 13:29N 37°55' E 023°06'0 0.0
2018-Feb-04 12:59N 37°55' E 023°06'0 0.0
2018-Feb-04 12:29N 37°55' E 023°06'0 0.0
2018-Feb-04 11:59N 37°55' E 023°06'0 0.1
2018-Feb-04 11:29N 37°55' E 023°06'0 0.0
2018-Feb-04 09:59N 37°55' E 023°06'0 0.0
2018-Feb-04 08:59N 37°55' E 023°06'0 0.3
2018-Feb-04 08:29N 37°55' E 023°06'0 0.0
2018-Feb-04 07:59N 37°54' E 023°06'0 0.0
2018-Feb-04 07:29N 37°54' E 023°06'0 0.1
2018-Feb-04 06:59N 37°55' E 023°06'0 0.0
2018-Feb-04 06:29N 37°54' E 023°06'0 0.0
2018-Feb-04 05:59N 37°55' E 023°06'0 0.0
2018-Feb-04 05:29N 37°55' E 023°06'0 0.2
2018-Feb-04 04:59N 37°55' E 023°06'0 0.0
2018-Feb-04 04:29N 37°55' E 023°06'0 0.1
2018-Feb-04 03:59N 37°55' E 023°06'0 0.1
2018-Feb-04 03:29N 37°55' E 023°06'0 0.0
2018-Feb-04 02:59N 37°55' E 023°06'0 0.1
2018-Feb-04 02:29N 37°55' E 023°06'0 0.1
2018-Feb-04 01:59N 37°54' E 023°06'0 0.1
2018-Feb-04 01:29N 37°55' E 023°06'0 0.2
2018-Feb-04 00:59N 37°55' E 023°06'0 0.2
2018-Feb-04 00:29N 37°55' E 023°06'0 0.0
2018-Feb-03 23:59N 37°55' E 023°06'0 0.1
2018-Feb-03 23:29N 37°54' E 023°06'0 0.0
2018-Feb-03 22:59N 37°55' E 023°06'0 0.0
2018-Feb-03 22:29N 37°55' E 023°06'0 0.2
2018-Feb-03 21:59N 37°55' E 023°06'0 0.1
2018-Feb-03 21:29N 37°55' E 023°06'0 0.0
2018-Feb-03 20:59N 37°55' E 023°06'0 0.1
2018-Feb-03 20:29N 37°55' E 023°06'1 1.1
2018-Feb-03 20:01N 37°54' E 023°06'1510.1
2018-Feb-03 18:31N 37°51' E 023°25'611.5
2018-Feb-03 18:01N 37°50' E 023°32'610.9
2018-Feb-03 17:30N 37°50' E 023°39'611.7
2018-Feb-03 17:00N 37°45' E 023°43'1211.2
2018-Feb-03 15:59N 37°35' E 023°48'  
Track history (hours):
 
Tides and Currents Weather Stations Pressure Air Temp Water Temp Dewpoint Dewpoint Depression Visibility Wind Speed Wind Dir Waves Ship Positions

Emsgas

Last reported at 2018-Feb-11 12:55 UTC. Time now 2018-Feb-20 12:05 UTC.
Position N 37°34' E 023°46'.
Warning: this ship's position is 8 days out of date.

Length 114.8 m; beam 17.2 m; draft 6.7 m.

Type: Ship (hazmat cat B). MMSI: 356011000.

Date/timePositionNaut miles runAvg speedWind from/ knotsBaromVisibWave heightAir tempDewpointWater temp
2018-Feb-11 12:55N 37°34' E 023°46'4 9.4
2018-Feb-11 12:30N 37°38' E 023°43'5 9.1
2018-Feb-11 12:00N 37°42' E 023°41'510.0
2018-Feb-11 11:30N 37°46' E 023°38'5 9.1
2018-Feb-11 11:00N 37°49' E 023°34'510.3
2018-Feb-11 10:30N 37°50' E 023°27'5 9.7
2018-Feb-11 10:00N 37°51' E 023°21'5 9.6
2018-Feb-11 09:30N 37°52' E 023°15'5 9.6
2018-Feb-11 09:00N 37°53' E 023°09'4 7.2
2018-Feb-11 08:31N 37°55' E 023°05'0 0.0
2018-Feb-11 08:00N 37°55' E 023°05'0 0.0
2018-Feb-11 07:30N 37°55' E 023°05'0 0.0
2018-Feb-11 07:00N 37°55' E 023°05'0 0.0
2018-Feb-11 06:30N 37°55' E 023°05'0 0.0
2018-Feb-11 06:00N 37°55' E 023°05'0 0.0
2018-Feb-11 05:30N 37°55' E 023°05'0 0.0
2018-Feb-11 05:00N 37°55' E 023°05'0 0.0
2018-Feb-11 04:30N 37°55' E 023°05'0 0.0
2018-Feb-11 04:00N 37°55' E 023°05'0 0.0
2018-Feb-11 03:30N 37°55' E 023°05'0 0.0
2018-Feb-11 03:00N 37°55' E 023°05'0 0.0
2018-Feb-11 02:30N 37°55' E 023°05'0 0.0
2018-Feb-11 02:00N 37°55' E 023°05'0 0.0
2018-Feb-11 01:30N 37°55' E 023°05'0 0.0
2018-Feb-11 01:00N 37°55' E 023°05'0 0.0
2018-Feb-11 00:30N 37°55' E 023°05'0 0.0
2018-Feb-11 00:00N 37°55' E 023°05'0 0.0
2018-Feb-10 23:30N 37°55' E 023°05'0 0.0
2018-Feb-10 23:00N 37°55' E 023°05'0 0.0
2018-Feb-10 22:30N 37°55' E 023°05'0 0.0
2018-Feb-10 22:00N 37°55' E 023°05'0 0.0
2018-Feb-10 21:30N 37°55' E 023°05'0 0.0
2018-Feb-10 21:00N 37°55' E 023°05'0 0.0
2018-Feb-10 20:30N 37°55' E 023°05'0 0.0
2018-Feb-10 20:00N 37°55' E 023°05'0 0.0
2018-Feb-10 19:30N 37°55' E 023°05'0 0.0
2018-Feb-10 19:00N 37°55' E 023°05'0 0.0
2018-Feb-10 18:30N 37°55' E 023°05'0 0.0
2018-Feb-10 18:00N 37°55' E 023°05'0 0.0
2018-Feb-10 17:30N 37°55' E 023°05'0 0.0
2018-Feb-10 17:00N 37°55' E 023°05'0 0.0
2018-Feb-10 16:30N 37°55' E 023°05'0 0.0
2018-Feb-10 16:00N 37°55' E 023°05'0 0.0
2018-Feb-10 15:30N 37°55' E 023°05'0 0.0
2018-Feb-10 15:00N 37°55' E 023°05'0 0.0
2018-Feb-10 14:30N 37°55' E 023°05'0 0.0
2018-Feb-10 14:00N 37°55' E 023°05'0 0.0
2018-Feb-10 13:30N 37°55' E 023°05'0 0.0
2018-Feb-10 13:00N 37°55' E 023°05'0 0.0
2018-Feb-10 12:30N 37°55' E 023°05'0 0.0
2018-Feb-10 12:00N 37°55' E 023°05'0 0.0
2018-Feb-10 11:30N 37°55' E 023°05'0 0.0
2018-Feb-10 11:00N 37°55' E 023°05'0 0.0
2018-Feb-10 10:30N 37°55' E 023°05'0 0.0
2018-Feb-10 10:00N 37°55' E 023°05'0 0.0
2018-Feb-10 09:30N 37°55' E 023°05'0 0.0
2018-Feb-10 09:00N 37°55' E 023°05'0 0.0
2018-Feb-10 08:30N 37°55' E 023°05'0 0.0
2018-Feb-10 08:00N 37°55' E 023°05'0 0.0
2018-Feb-10 07:30N 37°55' E 023°05'0 0.0
2018-Feb-10 07:00N 37°55' E 023°05'0 0.0
2018-Feb-10 06:30N 37°55' E 023°05'0 0.0
2018-Feb-10 06:00N 37°55' E 023°05'0 0.0
2018-Feb-10 05:30N 37°55' E 023°05'0 0.0
2018-Feb-10 05:00N 37°55' E 023°05'0 0.0
2018-Feb-10 04:30N 37°55' E 023°05'0 0.0
2018-Feb-10 04:00N 37°55' E 023°05'0 0.0
2018-Feb-10 03:30N 37°55' E 023°05'0 0.0
2018-Feb-10 03:00N 37°55' E 023°05'0 0.0
2018-Feb-10 02:30N 37°55' E 023°05'0 0.0
2018-Feb-10 02:00N 37°55' E 023°05'0 0.0
2018-Feb-10 01:30N 37°55' E 023°05'0 0.0
2018-Feb-10 00:59N 37°55' E 023°05'0 0.7
2018-Feb-10 00:30N 37°55' E 023°06'1 1.3
2018-Feb-09 23:59N 37°54' E 023°06'0 0.1
2018-Feb-09 23:29N 37°54' E 023°06'0 0.0
2018-Feb-09 22:59N 37°54' E 023°06'0 0.1
2018-Feb-09 22:44N 37°54' E 023°06'0 0.0
2018-Feb-08 01:29N 37°55' E 023°06'0 0.1
2018-Feb-08 00:59N 37°54' E 023°06'0 0.2
2018-Feb-08 00:29N 37°54' E 023°06'0 0.0
2018-Feb-07 23:59N 37°54' E 023°06'0 0.1
2018-Feb-07 23:29N 37°55' E 023°06'0 0.0
2018-Feb-07 22:59N 37°55' E 023°06'0 0.0
2018-Feb-07 22:29N 37°55' E 023°06'0 0.0
2018-Feb-07 21:59N 37°54' E 023°06'0 0.1
2018-Feb-07 21:29N 37°54' E 023°06'0 0.0
2018-Feb-07 09:29N 37°55' E 023°06'0 0.0
2018-Feb-07 08:59N 37°55' E 023°06'0 0.1
2018-Feb-07 08:29N 37°55' E 023°06'0 0.1
2018-Feb-07 07:59N 37°55' E 023°06'0 0.1
2018-Feb-07 07:29N 37°55' E 023°06'0 0.1
2018-Feb-07 06:59N 37°54' E 023°06'0 0.0
2018-Feb-07 06:29N 37°54' E 023°06'0 0.0
2018-Feb-07 05:59N 37°54' E 023°06'0 0.0
2018-Feb-07 05:29N 37°54' E 023°06'0 0.0
2018-Feb-07 04:59N 37°54' E 023°06'0 0.0
2018-Feb-07 04:29N 37°54' E 023°06'0 0.0
2018-Feb-07 03:59N 37°54' E 023°06'0 0.0
2018-Feb-07 03:29N 37°55' E 023°06'0 0.1
2018-Feb-07 02:59N 37°54' E 023°06'0 0.0
2018-Feb-07 02:29N 37°54' E 023°06'0 0.0
2018-Feb-07 01:59N 37°54' E 023°06'0 0.0
2018-Feb-07 01:29N 37°54' E 023°06'0 0.0
2018-Feb-07 00:59N 37°54' E 023°06'0 0.0
2018-Feb-07 00:29N 37°55' E 023°06'0 0.0
2018-Feb-06 23:59N 37°55' E 023°06'0 0.0
2018-Feb-06 23:29N 37°55' E 023°06'0 0.0
2018-Feb-06 22:59N 37°55' E 023°06'0 0.0
2018-Feb-06 22:29N 37°55' E 023°06'0 0.0
2018-Feb-06 21:59N 37°55' E 023°06'0 0.0
2018-Feb-06 21:29N 37°55' E 023°06'0 0.1
2018-Feb-06 20:59N 37°55' E 023°06'0 0.1
2018-Feb-06 20:29N 37°55' E 023°06'0 0.1
2018-Feb-06 19:59N 37°55' E 023°06'0 0.0
2018-Feb-06 19:29N 37°55' E 023°06'0 0.0
2018-Feb-06 18:59N 37°55' E 023°06'0 0.0
2018-Feb-06 18:29N 37°55' E 023°06'0 0.0
2018-Feb-06 17:59N 37°55' E 023°06'0 0.0
2018-Feb-06 17:29N 37°55' E 023°06'0 0.0
2018-Feb-06 16:59N 37°55' E 023°06'0 0.0
2018-Feb-06 16:29N 37°55' E 023°06'0 0.0
2018-Feb-06 15:59N 37°55' E 023°06'0 0.0
2018-Feb-06 15:29N 37°55' E 023°06'0 0.0
2018-Feb-06 14:59N 37°55' E 023°06'0 0.0
2018-Feb-06 14:29N 37°55' E 023°06'0 0.0
2018-Feb-06 13:59N 37°55' E 023°06'0 0.0
2018-Feb-06 13:29N 37°55' E 023°06'0 0.0
2018-Feb-06 12:59N 37°55' E 023°06'0 0.0
2018-Feb-06 12:29N 37°55' E 023°06'0 0.0
2018-Feb-06 11:59N 37°55' E 023°06'0 0.0
2018-Feb-06 11:26N 37°55' E 023°06'0 0.0
2018-Feb-06 10:59N 37°55' E 023°06'0 0.0
2018-Feb-06 10:29N 37°55' E 023°06'0 0.0
2018-Feb-06 09:59N 37°55' E 023°06'0 0.0
2018-Feb-06 09:29N 37°55' E 023°06'0 0.0
2018-Feb-06 08:59N 37°55' E 023°06'0 0.0
2018-Feb-06 08:29N 37°55' E 023°06'0 0.0
2018-Feb-06 07:59N 37°55' E 023°06'0 0.0
2018-Feb-06 07:20N 37°55' E 023°06'0 0.0
2018-Feb-06 06:59N 37°55' E 023°06'0 0.1
2018-Feb-06 06:29N 37°54' E 023°06'0 0.0
2018-Feb-06 05:59N 37°55' E 023°06'0 0.1
2018-Feb-06 05:29N 37°55' E 023°06'0 0.0
2018-Feb-06 04:59N 37°55' E 023°06'0 0.1
2018-Feb-06 04:29N 37°55' E 023°06'0 0.0
2018-Feb-06 03:59N 37°55' E 023°06'0 0.0
2018-Feb-06 03:29N 37°55' E 023°06'0 0.0
2018-Feb-06 02:59N 37°55' E 023°06'0 0.1
2018-Feb-06 02:29N 37°55' E 023°06'0 0.0
2018-Feb-06 01:59N 37°55' E 023°06'0 0.0
2018-Feb-06 01:29N 37°55' E 023°06'0 0.0
2018-Feb-06 00:59N 37°55' E 023°06'0 0.0
2018-Feb-06 00:29N 37°54' E 023°06'0 0.0
2018-Feb-05 23:59N 37°54' E 023°06'0 0.1
2018-Feb-05 23:29N 37°55' E 023°06'0 0.1
2018-Feb-05 22:59N 37°55' E 023°06'0 0.1
2018-Feb-05 22:29N 37°55' E 023°06'0 0.1
2018-Feb-05 21:59N 37°55' E 023°06'0 0.1
2018-Feb-05 21:29N 37°55' E 023°06'0 0.1
2018-Feb-05 20:59N 37°55' E 023°06'0 0.1
2018-Feb-05 20:29N 37°55' E 023°06'0 0.0
2018-Feb-05 19:59N 37°55' E 023°06'0 0.1
2018-Feb-05 19:29N 37°55' E 023°06'0 0.1
2018-Feb-05 18:59N 37°55' E 023°06'0 0.1
2018-Feb-05 18:29N 37°55' E 023°06'0 0.0
2018-Feb-05 17:59N 37°55' E 023°06'0 0.0
2018-Feb-05 17:29N 37°55' E 023°06'0 0.1
2018-Feb-05 16:59N 37°54' E 023°06'0 0.1
2018-Feb-05 16:29N 37°55' E 023°06'0 0.0
2018-Feb-05 15:59N 37°55' E 023°06'0 0.0
2018-Feb-05 15:29N 37°55' E 023°06'0 0.0
2018-Feb-05 14:59N 37°55' E 023°06'0 0.0
2018-Feb-05 14:29N 37°55' E 023°06'0 0.0
2018-Feb-05 13:59N 37°55' E 023°06'0 0.0
2018-Feb-05 13:29N 37°55' E 023°06'0 0.0
2018-Feb-05 12:59N 37°55' E 023°06'0 0.0
2018-Feb-05 12:29N 37°55' E 023°06'0 0.0
2018-Feb-05 11:59N 37°55' E 023°06'0 0.0
2018-Feb-05 11:29N 37°55' E 023°06'0 0.0
2018-Feb-05 10:59N 37°55' E 023°06'0 0.0
2018-Feb-05 10:29N 37°55' E 023°06'0 0.0
2018-Feb-05 09:59N 37°55' E 023°06'0 0.0
2018-Feb-05 09:29N 37°55' E 023°06'0 0.0
2018-Feb-05 08:59N 37°55' E 023°06'0 0.0
2018-Feb-05 08:29N 37°55' E 023°06'0 0.0
2018-Feb-05 07:59N 37°55' E 023°06'0 0.0
2018-Feb-05 07:29N 37°55' E 023°06'0 0.0
2018-Feb-05 06:59N 37°55' E 023°06'0 0.0
2018-Feb-05 06:29N 37°55' E 023°06'0 0.0
2018-Feb-05 05:29N 37°55' E 023°06'0 0.0
2018-Feb-05 04:59N 37°55' E 023°06'0 0.0
2018-Feb-05 04:29N 37°55' E 023°06'0 0.0
2018-Feb-05 03:59N 37°55' E 023°06'0 0.0
2018-Feb-05 03:29N 37°55' E 023°06'0 0.0
2018-Feb-05 02:59N 37°55' E 023°06'0 0.0
2018-Feb-05 02:29N 37°55' E 023°06'0 0.0
2018-Feb-05 01:59N 37°55' E 023°06'0 0.0
2018-Feb-05 01:29N 37°55' E 023°06'0 0.1
2018-Feb-05 00:59N 37°55' E 023°06'0 0.0
2018-Feb-05 00:29N 37°55' E 023°06'0 0.0
2018-Feb-04 23:59N 37°55' E 023°06'0 0.0
2018-Feb-04 23:29N 37°55' E 023°06'0 0.0
2018-Feb-04 22:59N 37°55' E 023°06'0 0.0
2018-Feb-04 22:29N 37°55' E 023°06'0 0.0
2018-Feb-04 21:59N 37°55' E 023°06'0 0.0
2018-Feb-04 21:29N 37°55' E 023°06'0 0.0
2018-Feb-04 20:59N 37°55' E 023°06'0 0.0
2018-Feb-04 19:59N 37°55' E 023°06'0 0.0
2018-Feb-04 19:29N 37°55' E 023°06'0 0.1
2018-Feb-04 18:59N 37°55' E 023°06'0 0.0
2018-Feb-04 18:29N 37°55' E 023°06'0 0.0
2018-Feb-04 17:59N 37°54' E 023°06'0 0.0
2018-Feb-04 17:29N 37°55' E 023°06'0 0.0
2018-Feb-04 15:29N 37°55' E 023°06'0 0.0
2018-Feb-04 14:59N 37°55' E 023°06'0 0.0
2018-Feb-04 14:29N 37°55' E 023°06'0 0.0
2018-Feb-04 13:59N 37°55' E 023°06'0 0.0
2018-Feb-04 13:29N 37°55' E 023°06'0 0.0
2018-Feb-04 12:59N 37°55' E 023°06'0 0.0
2018-Feb-04 12:29N 37°55' E 023°06'0 0.0
2018-Feb-04 11:59N 37°55' E 023°06'0 0.1
2018-Feb-04 11:29N 37°55' E 023°06'0 0.0
2018-Feb-04 09:59N 37°55' E 023°06'0 0.0
2018-Feb-04 08:59N 37°55' E 023°06'0 0.3
2018-Feb-04 08:29N 37°55' E 023°06'0 0.0
2018-Feb-04 07:59N 37°54' E 023°06'0 0.0
2018-Feb-04 07:29N 37°54' E 023°06'0 0.1
2018-Feb-04 06:59N 37°55' E 023°06'0 0.0
2018-Feb-04 06:29N 37°54' E 023°06'0 0.0
2018-Feb-04 05:59N 37°55' E 023°06'0 0.0
2018-Feb-04 05:29N 37°55' E 023°06'0 0.2
2018-Feb-04 04:59N 37°55' E 023°06'0 0.0
2018-Feb-04 04:29N 37°55' E 023°06'0 0.1
2018-Feb-04 03:59N 37°55' E 023°06'0 0.1
2018-Feb-04 03:29N 37°55' E 023°06'0 0.0
2018-Feb-04 02:59N 37°55' E 023°06'0 0.1
2018-Feb-04 02:29N 37°55' E 023°06'0 0.1
2018-Feb-04 01:59N 37°54' E 023°06'0 0.1
2018-Feb-04 01:29N 37°55' E 023°06'0 0.2
2018-Feb-04 00:59N 37°55' E 023°06'0 0.2
2018-Feb-04 00:29N 37°55' E 023°06'0 0.0
2018-Feb-03 23:59N 37°55' E 023°06'0 0.1
2018-Feb-03 23:29N 37°54' E 023°06'0 0.0
2018-Feb-03 22:59N 37°55' E 023°06'0 0.0
2018-Feb-03 22:29N 37°55' E 023°06'0 0.2
2018-Feb-03 21:59N 37°55' E 023°06'0 0.1
2018-Feb-03 21:29N 37°55' E 023°06'0 0.0
2018-Feb-03 20:59N 37°55' E 023°06'0 0.1
2018-Feb-03 20:29N 37°55' E 023°06'1 1.1
2018-Feb-03 20:01N 37°54' E 023°06'1510.1
2018-Feb-03 18:31N 37°51' E 023°25'611.5
2018-Feb-03 18:01N 37°50' E 023°32'610.9
2018-Feb-03 17:30N 37°50' E 023°39'611.7
2018-Feb-03 17:00N 37°45' E 023°43'1211.2
2018-Feb-03 15:59N 37°35' E 023°48'  

Dump ship's entire track history